createdAt,value
2023-10-02T00:02:36.713Z,8.80
2023-10-02T00:05:06.903Z,8.40
2023-10-02T00:07:38.436Z,8.23
2023-10-02T00:10:06.388Z,8.47
2023-10-02T00:12:35.855Z,9.43
2023-10-02T00:15:14.856Z,8.93
2023-10-02T00:17:45.338Z,9.17
2023-10-02T00:20:22.144Z,8.27
2023-10-02T00:22:49.378Z,8.67
2023-10-02T00:25:18.254Z,8.30
2023-10-02T00:27:49.783Z,8.80
2023-10-02T00:30:17.822Z,7.77
2023-10-02T00:32:47.316Z,8.80
2023-10-02T00:35:15.621Z,9.70
2023-10-02T00:37:47.174Z,8.60
2023-10-02T00:40:24.002Z,8.73
2023-10-02T00:42:56.466Z,9.13
2023-10-02T00:45:31.180Z,8.47
2023-10-02T00:48:19.390Z,8.80
2023-10-02T00:50:55.317Z,9.07
2023-10-02T00:53:39.178Z,8.23
2023-10-02T00:56:21.330Z,8.53
2023-10-02T00:58:55.923Z,9.00
2023-10-02T01:01:26.919Z,8.70
2023-10-02T01:04:11.488Z,8.80
2023-10-02T01:06:55.575Z,8.40
2023-10-02T01:09:26.949Z,8.60
2023-10-02T01:11:59.292Z,8.60
2023-10-02T01:14:49.735Z,8.97
2023-10-02T01:17:18.468Z,9.07
2023-10-02T01:19:55.793Z,9.07
2023-10-02T01:22:38.358Z,9.47
2023-10-02T01:25:16.426Z,7.80
2023-10-02T01:27:49.495Z,8.27
2023-10-02T01:30:21.414Z,9.40
2023-10-02T01:33:12.606Z,8.50
2023-10-02T01:35:41.681Z,9.37
2023-10-02T01:38:15.311Z,8.93
2023-10-02T01:40:55.511Z,8.57
2023-10-02T01:43:25.510Z,8.60
2023-10-02T01:45:57.885Z,8.53
2023-10-02T01:48:39.125Z,8.50
2023-10-02T01:51:21.200Z,8.90
2023-10-02T01:53:49.782Z,8.97
2023-10-02T01:56:18.281Z,8.50
2023-10-02T01:58:46.641Z,8.37
2023-10-02T02:01:14.011Z,9.13
2023-10-02T02:03:42.334Z,8.40
2023-10-02T02:06:10.175Z,9.00
2023-10-02T02:08:44.754Z,8.73
2023-10-02T02:11:18.157Z,8.53
2023-10-02T02:13:49.540Z,8.93
2023-10-02T02:16:22.985Z,8.97
2023-10-02T02:18:52.126Z,8.93
2023-10-02T02:21:20.267Z,9.07
2023-10-02T02:23:49.704Z,9.93
2023-10-02T02:26:23.262Z,9.80
2023-10-02T02:28:52.575Z,9.83
2023-10-02T02:31:32.314Z,8.53
2023-10-02T02:34:04.775Z,8.83
2023-10-02T02:36:36.461Z,8.80
2023-10-02T02:39:17.223Z,9.13
2023-10-02T02:41:47.705Z,9.30
2023-10-02T02:44:36.396Z,9.93
2023-10-02T02:47:08.628Z,9.87
2023-10-02T02:49:49.832Z,9.50
2023-10-02T02:52:17.896Z,9.13
2023-10-02T02:54:49.103Z,9.43
2023-10-02T02:57:19.468Z,9.50
2023-10-02T02:59:47.793Z,8.90
2023-10-02T03:02:23.287Z,8.93
2023-10-02T03:04:51.733Z,9.10
2023-10-02T03:07:30.787Z,9.20
2023-10-02T03:10:00.010Z,9.13
2023-10-02T03:12:28.607Z,9.40
2023-10-02T03:14:56.399Z,9.00
2023-10-02T03:17:31.462Z,9.97
2023-10-02T03:20:01.650Z,9.33
2023-10-02T03:22:29.595Z,9.30
2023-10-02T03:25:19.020Z,9.43
2023-10-02T03:27:45.713Z,10.07
2023-10-02T03:30:35.982Z,10.03
2023-10-02T03:33:05.068Z,9.30
2023-10-02T03:35:41.135Z,10.10
2023-10-02T03:38:07.789Z,9.83
2023-10-02T03:40:36.064Z,9.73
2023-10-02T03:43:19.997Z,8.97
2023-10-02T03:45:47.715Z,9.67
2023-10-02T03:48:16.176Z,9.70
2023-10-02T03:50:42.845Z,9.70
2023-10-02T03:53:13.913Z,8.70
2023-10-02T03:55:41.185Z,9.73
2023-10-02T03:58:10.600Z,9.40
2023-10-02T04:00:47.369Z,10.10
2023-10-02T04:03:15.759Z,10.00
2023-10-02T04:05:42.335Z,9.50
2023-10-02T04:08:36.401Z,9.67
2023-10-02T04:11:05.925Z,9.70
2023-10-02T04:13:35.954Z,10.33
2023-10-02T04:16:22.497Z,9.73
2023-10-02T04:19:00.023Z,10.60
2023-10-02T04:21:28.404Z,8.87
2023-10-02T04:23:55.734Z,9.53
2023-10-02T04:26:24.007Z,9.80
2023-10-02T04:29:01.043Z,9.93
2023-10-02T04:31:30.216Z,9.90
2023-10-02T04:34:15.816Z,9.47
2023-10-02T04:36:45.458Z,9.67
2023-10-02T04:39:33.226Z,9.97
2023-10-02T04:42:12.935Z,8.93
2023-10-02T04:44:47.805Z,9.57
2023-10-02T04:47:21.008Z,9.37
2023-10-02T04:50:04.970Z,8.90
2023-10-02T04:52:53.461Z,9.03
2023-10-02T04:55:25.406Z,9.47
2023-10-02T04:57:55.517Z,9.10
2023-10-02T05:00:36.393Z,9.13
2023-10-02T05:03:18.968Z,9.00
2023-10-02T05:05:54.504Z,9.30
2023-10-02T05:08:23.155Z,9.43
2023-10-02T05:10:57.767Z,9.50
2023-10-02T05:13:44.000Z,8.80
2023-10-02T05:16:13.460Z,9.50
2023-10-02T05:18:48.568Z,9.63
2023-10-02T05:21:18.916Z,10.43
2023-10-02T05:23:57.650Z,9.67
2023-10-02T05:26:34.099Z,9.27
2023-10-02T05:29:07.390Z,10.27
2023-10-02T05:31:42.532Z,9.27
2023-10-02T05:34:23.068Z,9.47
2023-10-02T05:37:06.029Z,9.80
2023-10-02T05:39:40.860Z,10.83
2023-10-02T05:42:16.349Z,10.03
2023-10-02T05:44:44.466Z,9.80
2023-10-02T05:47:12.451Z,10.67
2023-10-02T05:49:44.817Z,10.07
2023-10-02T05:52:12.994Z,9.53
2023-10-02T05:54:48.188Z,10.10
2023-10-02T05:57:15.176Z,9.57
2023-10-02T05:59:56.189Z,10.10
2023-10-02T06:02:24.243Z,9.60
2023-10-02T06:04:55.447Z,10.03
2023-10-02T06:07:41.968Z,10.00
2023-10-02T06:10:10.252Z,10.30
2023-10-02T06:12:43.583Z,10.40
2023-10-02T06:15:31.404Z,10.77
2023-10-02T06:18:00.075Z,9.73
2023-10-02T06:20:26.711Z,10.20
2023-10-02T06:23:06.792Z,10.50
2023-10-02T06:25:33.707Z,9.67
2023-10-02T06:28:20.216Z,9.93
2023-10-02T06:30:49.097Z,10.73
2023-10-02T06:33:15.926Z,10.30
2023-10-02T06:35:46.092Z,10.60
2023-10-02T06:38:19.452Z,10.00
2023-10-02T06:40:56.922Z,10.90
2023-10-02T06:43:30.346Z,9.83
2023-10-02T06:46:14.957Z,10.13
2023-10-02T06:48:45.288Z,10.40
2023-10-02T06:51:12.908Z,10.57
2023-10-02T06:53:42.247Z,10.23
2023-10-02T06:56:11.987Z,10.07
2023-10-02T06:58:53.682Z,10.33
2023-10-02T07:01:20.646Z,10.57
2023-10-02T07:03:54.192Z,10.20
2023-10-02T07:06:21.634Z,10.63
2023-10-02T07:09:11.030Z,10.33
2023-10-02T07:11:40.227Z,10.37
2023-10-02T07:14:07.385Z,10.60
2023-10-02T07:16:35.201Z,10.23
2023-10-02T07:19:08.461Z,10.13
2023-10-02T07:21:36.945Z,10.30
2023-10-02T07:24:05.455Z,9.70
2023-10-02T07:26:52.402Z,10.37
2023-10-02T07:29:20.510Z,10.47
2023-10-02T07:31:47.921Z,10.07
2023-10-02T07:34:17.057Z,9.90
2023-10-02T07:36:46.865Z,10.20
2023-10-02T07:39:49.538Z,10.37
2023-10-02T07:42:17.350Z,9.43
2023-10-02T07:44:43.867Z,9.70
2023-10-02T07:47:12.459Z,10.60
2023-10-02T07:49:45.225Z,10.40
2023-10-02T07:52:12.884Z,9.63
2023-10-02T07:54:45.770Z,9.87
2023-10-02T07:57:14.344Z,10.33
2023-10-02T07:59:44.778Z,10.07
2023-10-02T08:02:24.601Z,9.90
2023-10-02T08:04:52.930Z,10.17
2023-10-02T08:07:22.748Z,10.00
2023-10-02T08:09:56.955Z,10.10
2023-10-02T08:12:35.231Z,11.00
2023-10-02T08:15:27.962Z,10.23
2023-10-02T08:17:55.164Z,10.30
2023-10-02T08:20:26.124Z,10.20
2023-10-02T08:22:53.728Z,9.70
2023-10-02T08:25:24.816Z,9.97
2023-10-02T08:27:58.967Z,10.13
2023-10-02T08:30:33.669Z,10.40
2023-10-02T08:33:20.275Z,10.13
2023-10-02T08:35:56.219Z,10.27
2023-10-02T08:38:23.093Z,9.73
2023-10-02T08:40:58.334Z,9.50
2023-10-02T08:43:29.492Z,10.07
2023-10-02T08:45:56.883Z,9.70
2023-10-02T08:48:26.275Z,9.83
2023-10-02T08:50:59.132Z,9.93
2023-10-02T08:53:27.189Z,9.90
2023-10-02T08:56:23.396Z,10.43
2023-10-02T08:59:10.032Z,10.13
2023-10-02T09:01:36.762Z,9.50
2023-10-02T09:04:24.461Z,10.33
2023-10-02T09:06:54.542Z,10.90
2023-10-02T09:09:28.218Z,9.67
2023-10-02T09:11:58.755Z,10.07
2023-10-02T09:14:30.524Z,9.53
2023-10-02T09:17:16.606Z,10.30
2023-10-02T09:19:50.544Z,11.13
2023-10-02T09:22:19.031Z,10.77
2023-10-02T09:24:56.859Z,10.50
2023-10-02T09:27:25.549Z,10.33
2023-10-02T09:30:15.395Z,10.37
2023-10-02T09:32:49.062Z,10.10
2023-10-02T09:36:18.766Z,10.63
2023-10-02T09:38:18.481Z,10.33
2023-10-02T09:40:55.206Z,10.07
2023-10-02T09:43:25.694Z,10.40
2023-10-02T09:45:54.818Z,10.57
2023-10-02T09:48:49.766Z,10.83
2023-10-02T09:51:31.725Z,9.73
2023-10-02T09:54:06.447Z,10.03
2023-10-02T09:57:06.408Z,10.37
2023-10-02T09:59:49.237Z,10.23
2023-10-02T10:02:40.511Z,10.33
2023-10-02T10:05:11.806Z,10.07
2023-10-02T10:07:47.850Z,10.20
2023-10-02T10:10:52.494Z,9.90
2023-10-02T10:13:38.316Z,10.67
2023-10-02T10:16:19.924Z,10.73
2023-10-02T10:19:15.734Z,10.47
2023-10-02T10:21:57.939Z,10.33
2023-10-02T10:24:33.292Z,10.03
2023-10-02T10:27:00.265Z,9.50
2023-10-02T10:29:42.202Z,10.97
2023-10-02T10:32:25.535Z,10.50
2023-10-02T10:35:13.067Z,11.30
2023-10-02T10:37:42.108Z,10.33
2023-10-02T10:40:28.919Z,10.27
2023-10-02T10:43:00.712Z,10.13
2023-10-02T10:45:34.689Z,10.63
2023-10-02T10:48:02.987Z,10.70
2023-10-02T10:50:31.127Z,11.10
2023-10-02T10:53:03.432Z,10.13
2023-10-02T10:55:33.806Z,10.87
2023-10-02T10:58:07.055Z,10.43
2023-10-02T11:00:40.708Z,10.90
2023-10-02T11:03:10.419Z,10.70
2023-10-02T11:05:38.636Z,10.97
2023-10-02T11:08:25.247Z,10.40
2023-10-02T11:11:12.729Z,10.63
2023-10-02T11:13:53.204Z,9.93
2023-10-02T11:16:23.614Z,10.03
2023-10-02T11:19:34.015Z,10.37
2023-10-02T11:22:20.535Z,13.67
2023-10-02T11:24:54.597Z,11.30
2023-10-02T11:27:23.141Z,13.03
2023-10-02T11:30:04.515Z,13.00
2023-10-02T11:32:51.636Z,14.20
2023-10-02T11:35:19.044Z,10.00
2023-10-02T11:37:47.627Z,14.57
2023-10-02T11:40:14.671Z,10.57
2023-10-02T11:42:41.592Z,11.97
2023-10-02T11:45:09.160Z,10.50
2023-10-02T11:47:36.057Z,12.67
2023-10-02T11:50:03.209Z,12.17
2023-10-02T11:52:30.451Z,12.03
2023-10-02T11:54:56.900Z,12.20
2023-10-02T11:57:23.472Z,13.60
2023-10-02T11:59:51.219Z,11.00
2023-10-02T12:02:18.546Z,11.57
2023-10-02T12:04:45.911Z,12.00
2023-10-02T12:07:17.893Z,14.23
2023-10-02T12:09:48.647Z,11.23
2023-10-02T12:12:15.627Z,10.50
2023-10-02T12:14:43.665Z,10.33
2023-10-02T12:17:13.001Z,10.83
2023-10-02T12:19:41.161Z,9.43
2023-10-02T12:22:10.904Z,10.70
2023-10-02T12:24:38.479Z,10.70
2023-10-02T12:27:05.980Z,10.03
2023-10-02T12:29:33.309Z,10.40
2023-10-02T12:32:02.825Z,9.57
2023-10-02T12:34:29.756Z,9.53
2023-10-02T12:36:56.790Z,9.30
2023-10-02T12:39:27.460Z,9.63
2023-10-02T12:41:53.930Z,9.97
2023-10-02T12:44:20.485Z,10.17
2023-10-02T12:46:51.418Z,9.97
2023-10-02T12:49:22.195Z,9.60
2023-10-02T12:51:51.959Z,10.73
2023-10-02T12:54:20.125Z,10.00
2023-10-02T12:56:47.246Z,9.33
2023-10-02T12:59:14.055Z,10.07
2023-10-02T13:01:40.646Z,9.57
2023-10-02T13:04:08.081Z,9.50
2023-10-02T13:06:35.305Z,9.00
2023-10-02T13:09:15.552Z,9.20
2023-10-02T13:11:45.501Z,9.30
2023-10-02T13:14:19.663Z,9.57
2023-10-02T13:16:47.762Z,8.87
2023-10-02T13:19:14.291Z,9.47
2023-10-02T13:21:42.253Z,8.87
2023-10-02T13:24:16.792Z,8.97
2023-10-02T13:26:44.296Z,9.20
2023-10-02T13:29:11.264Z,9.07
2023-10-02T13:31:38.410Z,9.60
2023-10-02T13:34:08.100Z,9.50
2023-10-02T13:36:35.566Z,9.63
2023-10-02T13:39:05.936Z,9.10
2023-10-02T13:41:36.223Z,9.17
2023-10-02T13:44:05.402Z,8.90
2023-10-02T13:46:36.188Z,8.77
2023-10-02T13:49:03.372Z,9.17
2023-10-02T13:51:30.358Z,9.37
2023-10-02T13:53:57.329Z,8.87
2023-10-02T13:56:27.598Z,9.77
2023-10-02T13:58:54.806Z,9.13
2023-10-02T14:01:25.727Z,9.30
2023-10-02T14:03:53.911Z,8.80
2023-10-02T14:06:24.250Z,9.27
2023-10-02T14:08:51.548Z,9.00
2023-10-02T14:11:20.023Z,9.30
2023-10-02T14:13:50.722Z,9.13
2023-10-02T14:16:22.194Z,9.37
2023-10-02T14:18:57.634Z,8.77
2023-10-02T14:21:25.398Z,9.10
2023-10-02T14:23:53.540Z,8.93
2023-10-02T14:26:21.258Z,9.23
2023-10-02T14:28:47.962Z,8.97
2023-10-02T14:31:36.769Z,9.20
2023-10-02T14:34:08.151Z,8.97
2023-10-02T14:36:35.515Z,9.00
2023-10-02T14:39:05.278Z,8.77
2023-10-02T14:41:32.673Z,9.40
2023-10-02T14:43:59.483Z,8.90
2023-10-02T14:46:26.168Z,9.20
2023-10-02T14:48:54.471Z,9.23
2023-10-02T14:51:21.153Z,9.77
2023-10-02T14:53:47.677Z,9.13
2023-10-02T14:56:14.370Z,9.03
2023-10-02T14:58:48.522Z,9.10
2023-10-02T15:01:18.686Z,9.10
2023-10-02T15:03:48.395Z,8.33
2023-10-02T15:06:15.349Z,9.77
2023-10-02T15:08:42.352Z,9.37
2023-10-02T15:11:14.466Z,9.73
2023-10-02T15:13:42.102Z,9.10
2023-10-02T15:16:13.068Z,8.83
2023-10-02T15:18:40.764Z,9.53
2023-10-02T15:21:12.103Z,9.27
2023-10-02T15:23:41.065Z,9.07
2023-10-02T15:26:07.972Z,9.90
2023-10-02T15:28:34.805Z,9.13
2023-10-02T15:31:01.869Z,9.30
2023-10-02T15:33:36.529Z,9.70
2023-10-02T15:36:03.179Z,28.90
2023-10-02T15:38:31.067Z,42.13
2023-10-02T15:41:00.534Z,21.97
2023-10-02T15:43:27.574Z,21.33
2023-10-02T15:45:55.143Z,29.03
2023-10-02T15:48:23.420Z,15.77
2023-10-02T15:50:50.345Z,15.83
2023-10-02T15:53:18.824Z,27.23
2023-10-02T15:55:45.334Z,26.77
2023-10-02T15:58:13.363Z,20.67
2023-10-02T16:00:41.383Z,15.70
2023-10-02T16:03:09.264Z,15.67
2023-10-02T16:05:36.364Z,17.13
2023-10-02T16:08:03.548Z,13.87
2023-10-02T16:10:30.338Z,12.37
2023-10-02T16:12:58.348Z,12.10
2023-10-02T16:15:28.782Z,10.53
2023-10-02T16:17:59.949Z,10.80
2023-10-02T16:20:27.555Z,9.97
2023-10-02T16:22:58.026Z,9.97
2023-10-02T16:25:24.868Z,10.77
2023-10-02T16:27:53.762Z,8.97
2023-10-02T16:30:23.895Z,11.93
2023-10-02T16:32:51.033Z,10.67
2023-10-02T16:35:20.163Z,9.77
2023-10-02T16:37:49.296Z,9.70
2023-10-02T16:40:20.847Z,9.33
2023-10-02T16:42:49.331Z,10.13
2023-10-02T16:45:17.056Z,8.90
2023-10-02T16:47:45.290Z,9.80
2023-10-02T16:50:16.800Z,10.93
2023-10-02T16:52:45.414Z,11.57
2023-10-02T16:55:16.939Z,11.43
2023-10-02T16:57:47.182Z,11.30
2023-10-02T17:00:14.572Z,10.03
2023-10-02T17:02:42.538Z,9.43
2023-10-02T17:05:13.706Z,9.40
2023-10-02T17:07:42.021Z,8.97
2023-10-02T17:10:19.733Z,9.20
2023-10-02T17:12:51.304Z,9.10
2023-10-02T17:15:19.766Z,9.43
2023-10-02T17:17:49.087Z,9.33
2023-10-02T17:20:23.552Z,8.53
2023-10-02T17:22:50.958Z,9.13
2023-10-02T17:25:28.142Z,8.93
2023-10-02T17:28:00.057Z,9.90
2023-10-02T17:30:27.645Z,9.60
2023-10-02T17:32:54.968Z,8.97
2023-10-02T17:35:22.083Z,8.43
2023-10-02T17:37:49.394Z,8.50
2023-10-02T17:40:16.921Z,8.97
2023-10-02T17:42:44.654Z,9.03
2023-10-02T17:45:11.294Z,8.20
2023-10-02T17:47:43.288Z,9.20
2023-10-02T17:50:12.235Z,9.60
2023-10-02T17:52:42.644Z,9.20
2023-10-02T17:55:10.326Z,10.37
2023-10-02T17:57:37.589Z,10.27
2023-10-02T18:00:05.512Z,9.87
2023-10-02T18:02:50.152Z,10.47
2023-10-02T18:08:01.540Z,10.70
2023-10-02T18:10:28.316Z,10.60
2023-10-02T18:12:54.914Z,12.20
2023-10-02T18:15:21.835Z,11.63
2023-10-02T18:17:48.737Z,10.73
2023-10-02T18:20:19.286Z,12.70
2023-10-02T18:22:46.721Z,11.90
2023-10-02T18:25:13.414Z,10.13
2023-10-02T18:27:40.548Z,11.90
2023-10-02T18:30:09.412Z,12.13
2023-10-02T18:32:37.852Z,12.87
2023-10-02T18:35:05.742Z,12.60
2023-10-02T18:37:34.787Z,11.70
2023-10-02T18:40:08.834Z,13.07
2023-10-02T18:42:36.359Z,11.43
2023-10-02T18:45:05.325Z,11.77
2023-10-02T18:47:32.666Z,10.87
2023-10-02T18:49:59.484Z,11.07
2023-10-02T18:52:25.959Z,10.97
2023-10-02T18:54:52.469Z,11.10
2023-10-02T18:57:18.972Z,11.53
2023-10-02T18:59:46.422Z,11.73
2023-10-02T19:02:13.016Z,11.47
2023-10-02T19:04:39.500Z,11.40
2023-10-02T19:07:06.297Z,11.37
2023-10-02T19:09:34.782Z,11.37
2023-10-02T19:12:01.448Z,13.17
2023-10-02T19:14:28.097Z,13.10
2023-10-02T19:16:54.654Z,12.53
2023-10-02T19:19:21.261Z,12.43
2023-10-02T19:21:48.609Z,11.60
2023-10-02T19:24:15.465Z,13.00
2023-10-02T19:26:43.411Z,11.63
2023-10-02T19:29:10.112Z,12.30
2023-10-02T19:31:37.448Z,12.00
2023-10-02T19:34:04.265Z,12.20
2023-10-02T19:36:30.733Z,13.97
2023-10-02T19:38:57.824Z,12.60
2023-10-02T19:41:24.707Z,13.37
2023-10-02T19:43:53.848Z,12.87
2023-10-02T19:46:20.819Z,12.17
2023-10-02T19:48:49.381Z,12.93
2023-10-02T19:51:16.285Z,14.43
2023-10-02T19:53:44.240Z,14.03
2023-10-02T19:56:13.296Z,14.00
2023-10-02T19:58:40.146Z,15.30
2023-10-02T20:01:06.650Z,14.93
2023-10-02T20:03:36.388Z,14.50
2023-10-02T20:06:10.461Z,14.80
2023-10-02T20:08:38.989Z,13.80
2023-10-02T20:11:06.430Z,13.70
2023-10-02T20:13:34.171Z,14.53
2023-10-02T20:16:01.112Z,13.13
2023-10-02T20:18:28.377Z,12.50
2023-10-02T20:20:55.451Z,13.20
2023-10-02T20:25:48.793Z,11.83
2023-10-02T20:28:15.692Z,12.47
2023-10-02T20:30:43.662Z,11.73
2023-10-02T20:33:12.227Z,12.17
2023-10-02T20:35:42.483Z,13.07
2023-10-02T20:38:13.700Z,12.97
2023-10-02T20:40:43.592Z,12.27
2023-10-02T20:43:11.235Z,10.87
2023-10-02T20:45:37.999Z,12.10
2023-10-02T20:48:07.051Z,11.23
2023-10-02T20:50:36.842Z,11.53
2023-10-02T20:53:03.427Z,12.00
2023-10-02T20:55:29.905Z,10.97
2023-10-02T20:57:57.817Z,10.50
2023-10-02T21:00:25.078Z,11.77
2023-10-02T21:02:52.943Z,10.83
2023-10-02T21:05:19.764Z,11.77
2023-10-02T21:07:46.412Z,11.57
2023-10-02T21:10:12.966Z,12.27
2023-10-02T21:12:39.955Z,12.83
2023-10-02T21:15:15.494Z,12.90
2023-10-02T21:17:43.033Z,12.60
2023-10-02T21:20:12.774Z,11.93
2023-10-02T21:22:39.302Z,13.00
2023-10-02T21:25:10.196Z,11.83
2023-10-02T21:27:38.913Z,11.50
2023-10-02T21:30:12.800Z,13.03
2023-10-02T21:32:42.476Z,11.63
2023-10-02T21:35:10.117Z,11.87
2023-10-02T21:37:37.163Z,12.00
2023-10-02T21:40:07.309Z,10.23
2023-10-02T21:42:34.823Z,11.20
2023-10-02T21:45:02.120Z,11.33
2023-10-02T21:47:30.150Z,10.83
2023-10-02T21:49:56.810Z,12.37
2023-10-02T21:52:23.337Z,12.63
2023-10-02T21:54:49.875Z,11.07
2023-10-02T21:57:16.952Z,11.07
2023-10-02T21:59:43.609Z,11.00
2023-10-02T22:02:11.794Z,11.57
2023-10-02T22:04:41.523Z,11.50
2023-10-02T22:07:08.602Z,10.97
2023-10-02T22:09:35.200Z,10.73
2023-10-02T22:12:02.137Z,10.80
2023-10-02T22:14:29.718Z,10.00
2023-10-02T22:16:59.276Z,10.67
2023-10-02T22:19:26.350Z,10.53
2023-10-02T22:21:53.002Z,10.70
2023-10-02T22:24:21.942Z,10.47
2023-10-02T22:26:48.779Z,11.10
2023-10-02T22:29:15.529Z,10.37
2023-10-02T22:31:43.427Z,10.67
2023-10-02T22:34:10.900Z,11.87
2023-10-02T22:36:37.722Z,12.43
2023-10-02T22:39:04.651Z,11.80
2023-10-02T22:41:34.227Z,12.27
2023-10-02T22:44:00.833Z,11.80
2023-10-02T22:46:27.943Z,11.53
2023-10-02T22:48:55.545Z,12.40
2023-10-02T22:51:22.182Z,11.07
2023-10-02T22:53:51.351Z,10.87
2023-10-02T22:56:17.830Z,11.23
2023-10-02T22:58:44.363Z,10.77
2023-10-02T23:01:11.017Z,10.47
2023-10-02T23:03:38.878Z,10.63
2023-10-02T23:06:06.085Z,10.13
2023-10-02T23:08:34.455Z,10.53
2023-10-02T23:11:06.616Z,11.83
2023-10-02T23:13:34.358Z,12.83
2023-10-02T23:16:01.854Z,12.20
2023-10-02T23:18:29.226Z,13.57
2023-10-02T23:20:59.508Z,12.70
2023-10-02T23:23:26.673Z,12.33
2023-10-02T23:25:55.562Z,12.47
2023-10-02T23:28:22.066Z,13.23
2023-10-02T23:30:48.519Z,12.80
2023-10-02T23:33:16.877Z,12.27
2023-10-02T23:35:44.611Z,12.20
2023-10-02T23:38:12.756Z,14.33
2023-10-02T23:40:45.203Z,12.47
2023-10-02T23:43:15.331Z,12.70
2023-10-02T23:45:43.354Z,11.83
2023-10-02T23:48:20.489Z,13.07
2023-10-02T23:50:51.103Z,11.60
2023-10-02T23:53:25.016Z,11.87
2023-10-02T23:56:14.704Z,12.07
2023-10-02T23:58:43.468Z,12.23
